Swastika, Canada
Current Conditions -  °F | °C
As of 6:00 PM on Saturday 20 Dec 2014 (Local Time) from CYXR Reporting Station
Haze Haze  
Wind Chill:   Ceiling: Unl
Heat Index:   Visibility: 6mi
Dew Point: -2°   Wind: 2mph
Humidity: 85%   Direction: 200°SSW
Pressure: 30.28"   Gusts: NA
Location:  48.1°N, 80.1°W
Report Text: CYXR 202300Z AUTO 20002KT 6SM BR CLR M17/M19 A3028 RMK SLP281
Loading
Personal Weather Stations






























Interactive Weather Map New forecast layout! Learn more

10-Day Weather Forecast

Advertisements
Track Severe Weather on mobile